createdAt,value
2019-03-30T00:00:20.733Z,70.90
2019-03-30T00:02:50.312Z,71.10
2019-03-30T00:05:20.009Z,71.20
2019-03-30T00:07:49.484Z,71.20
2019-03-30T00:10:19.017Z,71.30
2019-03-30T00:12:48.645Z,71.10
2019-03-30T00:15:18.535Z,71.20
2019-03-30T00:17:48.050Z,71.60
2019-03-30T00:20:17.970Z,71.60
2019-03-30T00:22:47.500Z,72.10
2019-03-30T00:25:17.088Z,72.30
2019-03-30T00:27:46.608Z,72.00
2019-03-30T00:30:18.987Z,72.10
2019-03-30T00:32:47.352Z,72.00
2019-03-30T00:35:16.871Z,71.80
2019-03-30T00:37:47.462Z,72.00
2019-03-30T00:40:17.080Z,72.40
2019-03-30T00:42:46.656Z,72.40
2019-03-30T00:45:16.568Z,72.90
2019-03-30T00:47:46.111Z,72.60
2019-03-30T00:50:15.645Z,72.40
2019-03-30T00:52:46.256Z,73.00
2019-03-30T00:55:15.849Z,73.60
2019-03-30T00:57:45.394Z,72.90
2019-03-30T01:00:15.301Z,73.20
2019-03-30T01:02:44.852Z,73.00
2019-03-30T01:05:14.400Z,73.00
2019-03-30T01:07:43.977Z,73.20
2019-03-30T01:10:13.601Z,73.30
2019-03-30T01:12:43.286Z,73.80
2019-03-30T01:15:12.892Z,73.80
2019-03-30T01:17:42.663Z,73.50
2019-03-30T01:20:12.210Z,74.50
2019-03-30T01:22:41.785Z,74.40
2019-03-30T01:25:11.799Z,74.20
2019-03-30T01:27:41.332Z,74.20
2019-03-30T01:30:22.495Z,74.60
2019-03-30T01:32:42.398Z,74.80
2019-03-30T01:35:12.387Z,74.90
2019-03-30T01:37:42.467Z,74.70
2019-03-30T01:40:12.073Z,75.00
2019-03-30T01:42:41.608Z,74.70
2019-03-30T01:45:11.121Z,75.00
2019-03-30T01:47:40.981Z,75.40
2019-03-30T01:50:17.572Z,75.70
2019-03-30T01:52:41.880Z,75.70
2019-03-30T01:55:11.402Z,75.40
2019-03-30T01:57:41.165Z,75.70
2019-03-30T02:00:11.483Z,75.50
2019-03-30T02:02:41.336Z,75.40
2019-03-30T02:05:11.053Z,75.50
2019-03-30T02:07:40.668Z,75.70
2019-03-30T02:10:11.747Z,75.60
2019-03-30T02:12:41.321Z,75.50
2019-03-30T02:15:10.973Z,75.70
2019-03-30T02:17:40.521Z,75.50
2019-03-30T02:20:30.204Z,75.70
2019-03-30T02:22:47.717Z,75.80
2019-03-30T02:25:17.288Z,75.80
2019-03-30T02:27:46.848Z,75.60
2019-03-30T02:30:16.404Z,75.90
2019-03-30T02:32:46.243Z,76.40
2019-03-30T02:35:15.933Z,76.70
2019-03-30T02:37:45.475Z,76.90
2019-03-30T02:40:15.015Z,76.70
2019-03-30T02:42:44.605Z,76.60
2019-03-30T02:45:14.241Z,76.80
2019-03-30T02:47:43.778Z,76.60
2019-03-30T02:50:13.346Z,76.40
2019-03-30T02:52:42.887Z,76.90
2019-03-30T02:55:12.870Z,77.00
2019-03-30T02:57:42.537Z,76.90
2019-03-30T03:00:13.565Z,77.30
2019-03-30T03:02:43.072Z,77.20
2019-03-30T03:05:12.774Z,77.30
2019-03-30T03:07:42.381Z,77.30
2019-03-30T03:10:12.410Z,77.60
2019-03-30T03:12:42.367Z,77.50
2019-03-30T03:15:12.048Z,77.40
2019-03-30T03:17:41.588Z,77.80
2019-03-30T03:20:11.128Z,77.40
2019-03-30T03:22:40.769Z,77.70
2019-03-30T03:25:10.334Z,77.60
2019-03-30T03:27:39.942Z,77.80
2019-03-30T03:30:09.595Z,77.90
2019-03-30T03:32:39.119Z,78.30
2019-03-30T03:35:08.728Z,78.90
2019-03-30T03:37:45.220Z,79.40
2019-03-30T03:40:09.754Z,80.80
2019-03-30T03:42:39.327Z,80.40
2019-03-30T03:45:09.011Z,80.30
2019-03-30T03:47:38.514Z,80.30
2019-03-30T03:50:08.429Z,80.80
2019-03-30T03:52:38.278Z,80.20
2019-03-30T03:55:08.367Z,80.00
2019-03-30T03:57:39.402Z,80.00
2019-03-30T04:00:09.369Z,80.30
2019-03-30T04:02:39.111Z,80.10
2019-03-30T04:05:09.140Z,80.40
2019-03-30T04:07:41.494Z,81.30
2019-03-30T04:10:11.264Z,80.50
2019-03-30T04:12:41.424Z,80.00
2019-03-30T04:15:13.893Z,79.90
2019-03-30T04:17:43.816Z,80.20
2019-03-30T04:20:15.888Z,80.00
2019-03-30T04:22:45.490Z,80.30
2019-03-30T04:25:16.346Z,79.90
2019-03-30T04:27:45.931Z,80.70
2019-03-30T04:30:15.503Z,80.40
2019-03-30T04:32:45.474Z,80.40
2019-03-30T04:35:15.084Z,80.50
2019-03-30T04:37:44.617Z,80.60
2019-03-30T04:40:14.219Z,80.20
2019-03-30T04:42:43.839Z,80.50
2019-03-30T04:45:13.845Z,80.50
2019-03-30T04:47:43.378Z,80.50
2019-03-30T04:50:13.325Z,80.50
2019-03-30T04:52:42.848Z,80.80
2019-03-30T04:55:12.399Z,80.90
2019-03-30T04:57:41.894Z,81.10
2019-03-30T05:00:11.612Z,81.00
2019-03-30T05:02:41.155Z,81.30
2019-03-30T05:05:11.060Z,81.10
2019-03-30T05:07:40.645Z,80.80
2019-03-30T05:10:11.151Z,81.10
2019-03-30T05:12:40.789Z,81.00
2019-03-30T05:15:10.326Z,81.10
2019-03-30T05:17:47.702Z,81.00
2019-03-30T05:20:11.146Z,81.00
2019-03-30T05:22:41.651Z,81.30
2019-03-30T05:25:11.163Z,81.60
2019-03-30T05:27:40.696Z,81.50
2019-03-30T05:30:10.289Z,81.90
2019-03-30T05:32:41.651Z,82.10
2019-03-30T05:35:11.313Z,82.10
2019-03-30T05:37:40.864Z,81.90
2019-03-30T05:40:10.437Z,81.80
2019-03-30T05:42:39.973Z,82.30
2019-03-30T05:45:09.749Z,82.20
2019-03-30T05:47:39.354Z,82.40
2019-03-30T05:50:09.466Z,82.30
2019-03-30T05:52:39.101Z,82.00
2019-03-30T05:55:08.833Z,82.70
2019-03-30T05:57:38.498Z,82.70
2019-03-30T06:00:10.205Z,82.40
2019-03-30T06:02:39.797Z,82.30
2019-03-30T06:05:09.421Z,82.00
2019-03-30T06:07:39.321Z,82.10
2019-03-30T06:10:09.490Z,82.30
2019-03-30T06:12:39.233Z,82.10
2019-03-30T06:15:09.001Z,82.30
2019-03-30T06:17:38.746Z,81.80
2019-03-30T06:20:08.554Z,81.70
2019-03-30T06:22:40.822Z,81.90
2019-03-30T06:25:10.575Z,81.80
2019-03-30T06:27:40.591Z,81.80
2019-03-30T06:30:17.218Z,82.00
2019-03-30T06:32:46.939Z,81.60
2019-03-30T06:35:17.938Z,81.50
2019-03-30T06:37:47.731Z,81.80
2019-03-30T06:40:17.466Z,81.70
2019-03-30T06:42:47.012Z,81.70
2019-03-30T06:45:16.665Z,81.70
2019-03-30T06:47:46.424Z,81.70
2019-03-30T06:50:16.089Z,81.40
2019-03-30T06:52:57.855Z,80.80
2019-03-30T06:55:28.951Z,80.40
2019-03-30T06:57:58.553Z,80.40
2019-03-30T07:00:36.918Z,80.30
2019-03-30T07:03:07.244Z,80.10
2019-03-30T07:05:39.702Z,79.90
2019-03-30T07:08:11.041Z,79.90
2019-03-30T07:10:40.845Z,79.60
2019-03-30T07:13:10.454Z,79.10
2019-03-30T07:15:45.198Z,79.10
2019-03-30T07:18:14.802Z,79.00
2019-03-30T07:20:45.567Z,78.50
2019-03-30T07:23:15.212Z,78.40
2019-03-30T07:25:44.797Z,78.20
2019-03-30T07:28:14.413Z,78.10
2019-03-30T07:30:43.926Z,77.60
2019-03-30T07:33:13.569Z,78.50
2019-03-30T07:35:43.076Z,78.00
2019-03-30T07:38:13.141Z,78.20
2019-03-30T07:40:42.925Z,77.60
2019-03-30T07:43:13.551Z,77.90
2019-03-30T07:45:43.112Z,77.40
2019-03-30T07:48:12.761Z,76.90
2019-03-30T07:50:42.288Z,76.80
2019-03-30T07:53:25.566Z,76.30
2019-03-30T07:55:43.841Z,76.10
2019-03-30T07:58:13.805Z,76.50
2019-03-30T08:02:43.218Z,74.10
2019-03-30T08:05:15.565Z,74.00
2019-03-30T08:07:46.605Z,74.30
2019-03-30T08:10:18.065Z,73.10
2019-03-30T08:12:49.108Z,73.10
2019-03-30T08:15:20.267Z,71.40
2019-03-30T08:17:51.322Z,69.60
2019-03-30T08:20:22.329Z,70.30
2019-03-30T08:22:53.428Z,69.70
2019-03-30T08:25:24.425Z,68.70
2019-03-30T08:27:55.449Z,67.00
2019-03-30T08:30:26.588Z,65.50
2019-03-30T08:32:57.617Z,66.60
2019-03-30T08:35:28.621Z,66.10
2019-03-30T08:38:00.729Z,64.70
2019-03-30T08:40:32.346Z,63.50
2019-03-30T08:43:03.389Z,62.10
2019-03-30T08:45:34.387Z,63.00
2019-03-30T08:48:05.476Z,61.40
2019-03-30T08:50:36.498Z,60.70
2019-03-30T08:53:29.285Z,59.40
2019-03-30T08:56:01.392Z,59.30
2019-03-30T08:58:32.441Z,60.00
2019-03-30T09:01:04.090Z,59.60
2019-03-30T09:03:35.518Z,59.00
2019-03-30T09:06:09.582Z,58.00
2019-03-30T09:08:41.138Z,57.90
2019-03-30T09:11:12.340Z,58.50
2019-03-30T09:13:45.758Z,57.60
2019-03-30T09:16:17.635Z,56.50
2019-03-30T09:18:48.835Z,55.30
2019-03-30T09:21:20.599Z,57.60
2019-03-30T09:24:08.258Z,57.30
2019-03-30T09:26:27.244Z,54.30
2019-03-30T09:28:58.308Z,54.80
2019-03-30T09:31:29.515Z,54.60
2019-03-30T09:34:00.869Z,53.80
2019-03-30T09:36:32.908Z,51.80
2019-03-30T09:39:05.821Z,51.90
2019-03-30T09:41:36.941Z,51.50
2019-03-30T09:44:09.547Z,50.80
2019-03-30T09:46:41.785Z,50.70
2019-03-30T09:49:13.228Z,54.30
2019-03-30T09:51:47.946Z,52.70
2019-03-30T09:54:23.875Z,49.80
2019-03-30T09:56:52.806Z,50.50
2019-03-30T09:59:23.926Z,50.50
2019-03-30T10:01:56.204Z,50.80
2019-03-30T10:04:27.252Z,50.60
2019-03-30T10:06:58.384Z,49.60
2019-03-30T10:09:29.450Z,46.80
2019-03-30T10:12:00.553Z,49.80
2019-03-30T10:14:31.700Z,48.60
2019-03-30T10:17:02.716Z,46.40
2019-03-30T10:19:34.034Z,46.10
2019-03-30T10:22:09.126Z,45.80
2019-03-30T10:24:40.527Z,44.50
2019-03-30T10:27:11.565Z,44.20
2019-03-30T10:29:42.567Z,43.30
2019-03-30T10:32:14.022Z,41.30
2019-03-30T10:34:45.061Z,39.70
2019-03-30T10:37:16.186Z,38.60
2019-03-30T10:39:47.255Z,36.50
2019-03-30T10:42:18.296Z,36.80
2019-03-30T10:44:49.406Z,37.70
2019-03-30T10:47:20.855Z,37.60
2019-03-30T10:49:52.238Z,37.00
2019-03-30T10:52:24.356Z,38.20
2019-03-30T10:54:55.436Z,36.70
2019-03-30T10:57:26.507Z,35.70
2019-03-30T10:59:57.621Z,32.90
2019-03-30T11:02:28.660Z,32.90
2019-03-30T11:05:00.228Z,32.30
2019-03-30T11:07:31.624Z,32.90
2019-03-30T11:10:02.770Z,30.50
2019-03-30T11:12:33.838Z,32.20
2019-03-30T11:15:05.492Z,31.20
2019-03-30T11:17:36.523Z,29.60
2019-03-30T11:20:07.675Z,31.00
2019-03-30T11:22:38.790Z,29.30
2019-03-30T11:25:09.952Z,31.20
2019-03-30T11:27:41.161Z,28.40
2019-03-30T11:30:12.234Z,29.60
2019-03-30T11:32:43.362Z,28.50
2019-03-30T11:35:14.616Z,29.00
2019-03-30T11:37:45.725Z,28.10
2019-03-30T11:40:16.757Z,30.00
2019-03-30T11:42:48.109Z,27.50
2019-03-30T11:45:19.245Z,26.60
2019-03-30T11:47:50.541Z,26.70
2019-03-30T11:50:21.669Z,27.10
2019-03-30T11:52:53.165Z,26.70
2019-03-30T11:55:24.238Z,26.50
2019-03-30T11:57:55.302Z,25.00
2019-03-30T12:00:26.393Z,24.30
2019-03-30T12:02:57.506Z,27.50
2019-03-30T12:05:28.658Z,26.30
2019-03-30T12:07:59.853Z,25.90
2019-03-30T12:10:31.181Z,27.10
2019-03-30T12:13:02.619Z,26.10
2019-03-30T12:15:33.673Z,25.70
2019-03-30T12:18:05.146Z,25.10
2019-03-30T12:20:36.181Z,25.60
2019-03-30T12:23:07.299Z,25.70
2019-03-30T12:25:38.830Z,26.80
2019-03-30T12:28:10.193Z,25.80
2019-03-30T12:30:41.252Z,24.60
2019-03-30T12:33:12.319Z,24.90
2019-03-30T12:35:43.747Z,26.80
2019-03-30T12:38:15.189Z,25.00
2019-03-30T12:40:46.226Z,24.30
2019-03-30T12:43:17.272Z,24.80
2019-03-30T12:45:48.628Z,22.80
2019-03-30T12:48:20.056Z,24.10
2019-03-30T12:50:51.115Z,24.20
2019-03-30T12:53:22.226Z,21.90
2019-03-30T12:55:53.639Z,22.80
2019-03-30T12:58:24.754Z,22.20
2019-03-30T13:00:55.797Z,22.60
2019-03-30T13:03:27.915Z,21.40
2019-03-30T13:05:58.929Z,21.50
2019-03-30T13:08:29.992Z,21.40
2019-03-30T13:11:01.730Z,23.20
2019-03-30T13:13:32.838Z,20.90
2019-03-30T13:16:03.868Z,22.90
2019-03-30T13:18:34.901Z,22.40
2019-03-30T13:21:05.990Z,23.00
2019-03-30T13:23:38.102Z,21.70
2019-03-30T13:26:09.200Z,19.80
2019-03-30T13:28:40.271Z,20.20
2019-03-30T13:31:12.288Z,19.00
2019-03-30T13:33:44.327Z,21.40
2019-03-30T13:36:15.543Z,21.40
2019-03-30T13:38:49.769Z,21.40
2019-03-30T13:41:20.919Z,22.40
2019-03-30T13:43:52.019Z,20.70
2019-03-30T13:46:23.034Z,20.40
2019-03-30T13:48:54.141Z,20.30
2019-03-30T13:51:25.173Z,20.20
2019-03-30T13:53:56.396Z,21.50
2019-03-30T13:56:27.572Z,19.90
2019-03-30T13:58:58.603Z,18.90
2019-03-30T14:01:29.620Z,20.50
2019-03-30T14:04:00.900Z,20.50
2019-03-30T14:06:31.996Z,20.50
2019-03-30T14:09:04.024Z,19.60
2019-03-30T14:11:35.924Z,19.50
2019-03-30T14:14:07.298Z,20.50
2019-03-30T14:16:38.679Z,20.10
2019-03-30T14:19:09.753Z,20.40
2019-03-30T14:21:40.748Z,20.10
2019-03-30T14:24:11.891Z,20.30
2019-03-30T14:26:43.280Z,19.50
2019-03-30T14:29:14.390Z,20.40
2019-03-30T14:31:45.468Z,19.70
2019-03-30T14:34:16.570Z,20.70
2019-03-30T14:36:47.606Z,20.70
2019-03-30T14:39:18.735Z,20.30
2019-03-30T14:41:49.825Z,20.60
2019-03-30T14:44:20.854Z,19.20
2019-03-30T14:46:51.990Z,20.20
2019-03-30T14:49:23.045Z,20.30
2019-03-30T14:51:54.048Z,20.20
2019-03-30T14:54:25.088Z,19.40
2019-03-30T14:56:56.114Z,20.70
2019-03-30T14:59:27.114Z,19.70
2019-03-30T15:01:58.142Z,20.30
2019-03-30T15:04:29.303Z,20.60
2019-03-30T15:07:00.341Z,20.20
2019-03-30T15:09:31.520Z,21.50
2019-03-30T15:12:02.597Z,21.60
2019-03-30T15:14:33.639Z,22.20
2019-03-30T15:17:04.697Z,21.30
2019-03-30T15:19:35.721Z,22.50
2019-03-30T15:22:07.571Z,22.20
2019-03-30T15:24:38.661Z,22.60
2019-03-30T15:27:09.709Z,22.90
2019-03-30T15:29:40.794Z,22.50
2019-03-30T15:32:11.814Z,22.70
2019-03-30T15:34:42.954Z,23.60
2019-03-30T15:37:14.421Z,23.80
2019-03-30T15:39:45.539Z,23.50
2019-03-30T15:42:16.601Z,23.60
2019-03-30T15:44:47.669Z,24.00
2019-03-30T15:47:18.802Z,24.50
2019-03-30T15:49:49.860Z,25.00
2019-03-30T15:52:21.788Z,25.30
2019-03-30T15:54:52.833Z,24.40
2019-03-30T15:57:25.514Z,24.20
2019-03-30T15:59:56.634Z,25.30
2019-03-30T16:02:28.031Z,25.10
2019-03-30T16:04:59.227Z,25.60
2019-03-30T16:07:30.321Z,25.20
2019-03-30T16:10:01.736Z,26.80
2019-03-30T16:12:32.792Z,26.60
2019-03-30T16:15:04.021Z,26.50
2019-03-30T16:17:35.021Z,26.80
2019-03-30T16:20:07.227Z,27.20
2019-03-30T16:22:38.255Z,26.80
2019-03-30T16:25:09.646Z,26.60
2019-03-30T16:27:40.698Z,25.90
2019-03-30T16:30:12.425Z,25.80
2019-03-30T16:32:43.458Z,24.90
2019-03-30T16:35:14.552Z,24.60
2019-03-30T16:37:45.659Z,23.70
2019-03-30T16:40:16.696Z,24.10
2019-03-30T16:42:47.742Z,24.90
2019-03-30T16:45:18.865Z,25.50
2019-03-30T16:47:49.878Z,25.40
2019-03-30T16:50:20.961Z,26.60
2019-03-30T16:52:52.097Z,26.30
2019-03-30T16:55:23.264Z,27.20
2019-03-30T16:57:54.412Z,28.40
2019-03-30T17:00:25.555Z,27.70
2019-03-30T17:02:56.575Z,28.60
2019-03-30T17:05:27.612Z,30.40
2019-03-30T17:07:58.732Z,30.10
2019-03-30T17:10:29.789Z,30.10
2019-03-30T17:13:00.792Z,29.90
2019-03-30T17:15:31.922Z,30.30
2019-03-30T17:18:02.944Z,31.80
2019-03-30T17:20:33.977Z,33.40
2019-03-30T17:23:05.089Z,33.40
2019-03-30T17:25:36.812Z,32.90
2019-03-30T17:28:08.351Z,33.40
2019-03-30T17:30:39.549Z,34.10
2019-03-30T17:33:10.592Z,34.90
2019-03-30T17:35:41.771Z,35.10
2019-03-30T17:38:12.867Z,36.50
2019-03-30T17:40:44.215Z,37.10
2019-03-30T17:43:15.395Z,36.10
2019-03-30T17:45:46.528Z,36.30
2019-03-30T17:48:17.552Z,35.90
2019-03-30T17:50:48.845Z,35.40
2019-03-30T17:53:19.955Z,36.30
2019-03-30T17:55:51.069Z,37.80
2019-03-30T17:58:22.153Z,37.40
2019-03-30T18:00:53.616Z,37.70
2019-03-30T18:03:24.645Z,38.80
2019-03-30T18:05:55.686Z,38.60
2019-03-30T18:08:26.811Z,39.00
2019-03-30T18:10:58.224Z,40.10
2019-03-30T18:13:29.337Z,40.40
2019-03-30T18:16:00.356Z,40.50
2019-03-30T18:18:31.493Z,40.70
2019-03-30T18:21:02.576Z,41.20
2019-03-30T18:23:33.605Z,42.00
2019-03-30T18:26:04.696Z,42.10
2019-03-30T18:28:35.748Z,42.20
2019-03-30T18:31:07.132Z,42.30
2019-03-30T18:33:38.858Z,42.60
2019-03-30T18:36:09.901Z,43.20
2019-03-30T18:38:41.418Z,43.10
2019-03-30T18:41:12.691Z,43.30
2019-03-30T18:43:43.824Z,43.80
2019-03-30T18:46:15.293Z,44.80
2019-03-30T18:48:46.519Z,44.50
2019-03-30T18:51:17.977Z,45.10
2019-03-30T18:53:49.033Z,45.80
2019-03-30T18:56:20.043Z,45.90
2019-03-30T18:58:51.221Z,45.30
2019-03-30T19:01:22.258Z,45.40
2019-03-30T19:03:53.389Z,46.00
2019-03-30T19:06:24.623Z,45.60
2019-03-30T19:08:55.607Z,46.30
2019-03-30T19:11:27.028Z,47.20
2019-03-30T19:13:58.059Z,46.80
2019-03-30T19:16:29.086Z,47.00
2019-03-30T19:19:00.151Z,46.80
2019-03-30T19:21:31.210Z,47.60
2019-03-30T19:24:02.231Z,47.20
2019-03-30T19:26:33.333Z,46.60
2019-03-30T19:29:04.399Z,47.00
2019-03-30T19:31:35.418Z,47.00
2019-03-30T19:34:06.516Z,47.70
2019-03-30T19:36:38.147Z,49.00
2019-03-30T19:39:09.769Z,48.50
2019-03-30T19:41:40.820Z,48.40
2019-03-30T19:44:11.857Z,48.30
2019-03-30T19:46:42.908Z,49.10
2019-03-30T19:49:15.129Z,49.40
2019-03-30T19:51:46.223Z,49.90
2019-03-30T19:54:17.296Z,50.20
2019-03-30T19:56:48.380Z,50.40
2019-03-30T19:59:19.393Z,51.10
2019-03-30T20:01:51.219Z,50.50
2019-03-30T20:04:22.301Z,49.80
2019-03-30T20:06:53.296Z,50.00
2019-03-30T20:09:24.361Z,50.10
2019-03-30T20:11:55.500Z,50.50
2019-03-30T20:14:27.124Z,51.40
2019-03-30T20:16:58.552Z,51.90
2019-03-30T20:19:29.717Z,51.80
2019-03-30T20:22:01.225Z,52.10
2019-03-30T20:24:32.273Z,51.60
2019-03-30T20:27:03.284Z,52.30
2019-03-30T20:29:34.584Z,52.70
2019-03-30T20:32:05.766Z,52.40
2019-03-30T20:34:36.854Z,52.20
2019-03-30T20:37:07.901Z,52.50
2019-03-30T20:39:39.120Z,53.20
2019-03-30T20:42:10.439Z,53.40
2019-03-30T20:44:41.564Z,53.20
2019-03-30T20:47:12.685Z,53.20
2019-03-30T20:49:43.769Z,53.70
2019-03-30T20:52:15.340Z,54.10
2019-03-30T20:54:46.408Z,54.30
2019-03-30T20:57:17.449Z,54.60
2019-03-30T20:59:48.776Z,55.00
2019-03-30T21:02:19.909Z,55.30
2019-03-30T21:04:51.209Z,55.50
2019-03-30T21:07:24.362Z,55.50
2019-03-30T21:09:55.641Z,55.90
2019-03-30T21:12:26.936Z,55.30
2019-03-30T21:14:58.113Z,55.30
2019-03-30T21:17:29.309Z,55.50
2019-03-30T21:20:00.859Z,56.20
2019-03-30T21:22:32.096Z,56.70
2019-03-30T21:25:03.209Z,56.80
2019-03-30T21:27:34.462Z,57.50
2019-03-30T21:30:08.100Z,56.40
2019-03-30T21:32:39.663Z,57.30
2019-03-30T21:35:11.373Z,57.30
2019-03-30T21:37:42.666Z,57.60
2019-03-30T21:40:13.703Z,56.90
2019-03-30T21:42:45.734Z,57.00
2019-03-30T21:45:16.860Z,57.20
2019-03-30T21:47:47.920Z,57.50
2019-03-30T21:50:18.980Z,58.10
2019-03-30T21:52:50.143Z,58.70
2019-03-30T21:55:21.275Z,58.30
2019-03-30T21:57:52.517Z,58.40
2019-03-30T22:00:35.221Z,58.50
2019-03-30T22:03:06.866Z,58.20
2019-03-30T22:05:38.038Z,58.10
2019-03-30T22:08:10.629Z,58.10
2019-03-30T22:10:58.546Z,58.80
2019-03-30T22:13:32.018Z,57.90
2019-03-30T22:16:03.029Z,58.40
2019-03-30T22:18:34.181Z,58.80
2019-03-30T22:21:05.224Z,59.00
2019-03-30T22:23:36.460Z,59.60
2019-03-30T22:26:08.865Z,60.00
2019-03-30T22:28:39.961Z,60.30
2019-03-30T22:31:11.067Z,60.70
2019-03-30T22:33:42.241Z,61.30
2019-03-30T22:36:13.327Z,61.30
2019-03-30T22:38:44.433Z,62.20
2019-03-30T22:41:15.477Z,61.90
2019-03-30T22:43:46.890Z,62.30
2019-03-30T22:46:17.912Z,62.60
2019-03-30T22:48:52.209Z,62.80
2019-03-30T22:51:23.263Z,62.70
2019-03-30T22:53:54.625Z,63.10
2019-03-30T22:56:25.655Z,64.00
2019-03-30T22:58:57.184Z,63.30
2019-03-30T23:01:28.592Z,63.40
2019-03-30T23:03:59.643Z,63.60
2019-03-30T23:06:30.672Z,63.80
2019-03-30T23:09:02.221Z,64.00
2019-03-30T23:11:34.765Z,64.10
2019-03-30T23:14:05.786Z,64.70
2019-03-30T23:16:37.569Z,64.60
2019-03-30T23:19:08.698Z,64.80
2019-03-30T23:21:40.669Z,64.30
2019-03-30T23:24:11.782Z,64.10
2019-03-30T23:26:42.868Z,64.60
2019-03-30T23:29:13.997Z,64.60
2019-03-30T23:31:46.236Z,64.30
2019-03-30T23:34:17.342Z,64.40
2019-03-30T23:36:48.384Z,64.90
2019-03-30T23:39:19.816Z,64.70
2019-03-30T23:41:50.911Z,65.30
2019-03-30T23:44:22.213Z,65.20
2019-03-30T23:46:53.200Z,65.20
2019-03-30T23:49:24.517Z,65.20
2019-03-30T23:51:55.521Z,65.90
2019-03-30T23:54:26.625Z,66.80
2019-03-30T23:56:57.636Z,66.20
2019-03-30T23:59:28.660Z,65.80
